createdAt,value
2023-05-01T00:00:28.328Z,99.90
2023-05-01T00:02:55.183Z,99.90
2023-05-01T00:05:21.994Z,99.90
2023-05-01T00:07:48.991Z,99.90
2023-05-01T00:10:15.730Z,99.90
2023-05-01T00:12:42.467Z,99.90
2023-05-01T00:15:09.880Z,99.90
2023-05-01T00:17:36.644Z,99.90
2023-05-01T00:20:05.246Z,99.90
2023-05-01T00:22:32.057Z,99.90
2023-05-01T00:24:58.680Z,99.90
2023-05-01T00:27:25.529Z,99.90
2023-05-01T00:29:52.198Z,99.90
2023-05-01T00:32:19.087Z,99.90
2023-05-01T00:34:47.702Z,99.90
2023-05-01T00:37:14.815Z,99.90
2023-05-01T00:39:41.525Z,99.90
2023-05-01T00:42:08.438Z,99.90
2023-05-01T00:44:35.301Z,99.90
2023-05-01T00:47:03.473Z,99.90
2023-05-01T00:49:30.403Z,99.90
2023-05-01T00:51:58.443Z,99.90
2023-05-01T00:54:27.587Z,99.90
2023-05-01T00:56:54.767Z,99.90
2023-05-01T00:59:22.078Z,99.90
2023-05-01T01:01:48.845Z,99.90
2023-05-01T01:04:15.631Z,99.90
2023-05-01T01:07:08.012Z,99.90
2023-05-01T01:10:02.478Z,99.90
2023-05-01T01:12:56.311Z,99.90
2023-05-01T01:15:31.876Z,99.90
2023-05-01T01:18:10.167Z,99.90
2023-05-01T01:21:01.314Z,99.90
2023-05-01T01:23:53.158Z,99.90
2023-05-01T01:27:11.877Z,99.90
2023-05-01T01:29:38.704Z,99.90
2023-05-01T01:32:08.135Z,99.90
2023-05-01T01:34:40.502Z,99.90
2023-05-01T01:37:24.816Z,99.90
2023-05-01T01:40:07.673Z,99.90
2023-05-01T01:42:44.999Z,99.90
2023-05-01T01:45:29.395Z,99.90
2023-05-01T01:47:57.552Z,99.90
2023-05-01T01:50:26.993Z,99.90
2023-05-01T01:52:54.940Z,99.90
2023-05-01T01:55:27.715Z,99.90
2023-05-01T01:57:54.569Z,99.90
2023-05-01T02:00:22.848Z,99.90
2023-05-01T02:02:52.403Z,99.90
2023-05-01T02:05:20.537Z,99.90
2023-05-01T02:07:52.788Z,99.90
2023-05-01T02:10:21.502Z,99.90
2023-05-01T02:12:50.242Z,99.90
2023-05-01T02:15:20.763Z,99.90
2023-05-01T02:17:51.211Z,99.90
2023-05-01T02:20:18.538Z,99.90
2023-05-01T02:22:47.114Z,99.90
2023-05-01T02:25:16.628Z,99.90
2023-05-01T02:28:06.385Z,99.90
2023-05-01T02:30:33.095Z,99.90
2023-05-01T02:32:59.783Z,99.90
2023-05-01T02:35:26.643Z,99.90
2023-05-01T02:37:53.361Z,99.90
2023-05-01T02:40:20.215Z,99.90
2023-05-01T02:42:49.052Z,99.90
2023-05-01T02:45:21.456Z,99.90
2023-05-01T02:47:50.293Z,99.90
2023-05-01T02:50:17.546Z,99.90
2023-05-01T02:52:50.389Z,99.90
2023-05-01T02:55:44.647Z,99.90
2023-05-01T02:58:18.908Z,99.90
2023-05-01T03:00:47.129Z,99.90
2023-05-01T03:03:13.973Z,99.90
2023-05-01T03:05:41.647Z,99.90
2023-05-01T03:08:09.954Z,99.90
2023-05-01T03:10:36.618Z,99.90
2023-05-01T03:13:03.569Z,99.90
2023-05-01T03:15:30.435Z,99.90
2023-05-01T03:17:57.202Z,99.90
2023-05-01T03:20:25.282Z,99.90
2023-05-01T03:22:52.552Z,99.90
2023-05-01T03:25:19.308Z,99.90
2023-05-01T03:27:45.958Z,99.90
2023-05-01T03:30:13.032Z,99.90
2023-05-01T03:32:44.555Z,99.90
2023-05-01T03:35:18.778Z,99.90
2023-05-01T03:37:45.604Z,99.90
2023-05-01T03:40:21.974Z,99.90
2023-05-01T03:43:14.356Z,99.90
2023-05-01T03:45:43.243Z,99.90
2023-05-01T03:48:11.585Z,99.90
2023-05-01T03:50:38.988Z,99.90
2023-05-01T03:53:05.764Z,99.90
2023-05-01T03:55:32.440Z,99.90
2023-05-01T03:57:59.134Z,99.90
2023-05-01T04:00:26.873Z,99.90
2023-05-01T04:02:53.787Z,99.90
2023-05-01T04:05:23.747Z,99.90
2023-05-01T04:07:53.848Z,99.90
2023-05-01T04:10:20.659Z,99.90
2023-05-01T04:12:54.368Z,99.90
2023-05-01T04:15:22.558Z,99.90
2023-05-01T04:17:49.685Z,99.90
2023-05-01T04:20:19.102Z,99.90
2023-05-01T04:22:45.985Z,99.90
2023-05-01T04:25:12.724Z,99.90
2023-05-01T04:27:39.812Z,99.90
2023-05-01T04:30:07.464Z,99.90
2023-05-01T04:32:35.485Z,99.90
2023-05-01T04:35:02.562Z,99.90
2023-05-01T04:37:29.770Z,99.90
2023-05-01T04:39:56.915Z,99.90
2023-05-01T04:42:29.690Z,99.90
2023-05-01T04:44:56.637Z,99.90
2023-05-01T04:47:23.691Z,99.90
2023-05-01T04:49:50.770Z,99.90
2023-05-01T04:52:17.552Z,99.90
2023-05-01T04:54:51.083Z,99.90
2023-05-01T04:57:18.622Z,99.90
2023-05-01T04:59:45.376Z,99.90
2023-05-01T05:02:13.361Z,99.90
2023-05-01T05:04:40.120Z,99.90
2023-05-01T05:07:07.185Z,99.90
2023-05-01T05:09:53.960Z,99.90
2023-05-01T05:12:20.680Z,99.90
2023-05-01T05:14:50.703Z,99.90
2023-05-01T05:17:18.179Z,99.90
2023-05-01T05:19:45.057Z,99.90
2023-05-01T05:22:15.609Z,99.90
2023-05-01T05:25:04.419Z,99.90
2023-05-01T05:27:36.330Z,99.90
2023-05-01T05:30:05.319Z,99.90
2023-05-01T05:32:33.735Z,99.90
2023-05-01T05:35:00.649Z,99.90
2023-05-01T05:37:27.853Z,99.90
2023-05-01T05:39:54.988Z,99.90
2023-05-01T05:42:21.877Z,99.90
2023-05-01T05:44:48.884Z,99.90
2023-05-01T05:47:15.686Z,99.90
2023-05-01T05:49:42.562Z,99.90
2023-05-01T05:52:09.271Z,99.90
2023-05-01T05:54:37.076Z,99.90
2023-05-01T05:57:04.005Z,99.90
2023-05-01T05:59:31.821Z,99.90
2023-05-01T06:01:58.929Z,99.90
2023-05-01T06:04:25.669Z,99.90
2023-05-01T06:06:52.421Z,99.90
2023-05-01T06:09:20.022Z,99.90
2023-05-01T06:11:48.838Z,99.90
2023-05-01T06:14:16.906Z,99.90
2023-05-01T06:16:44.332Z,99.90
2023-05-01T06:19:12.158Z,99.90
2023-05-01T06:21:39.909Z,99.90
2023-05-01T06:24:09.838Z,99.90
2023-05-01T06:26:45.541Z,99.90
2023-05-01T06:29:12.766Z,99.90
2023-05-01T06:31:44.136Z,99.90
2023-05-01T06:34:10.940Z,99.90
2023-05-01T06:36:48.231Z,99.90
2023-05-01T06:39:14.913Z,99.90
2023-05-01T06:41:41.786Z,99.90
2023-05-01T06:44:13.846Z,99.90
2023-05-01T06:46:40.835Z,99.90
2023-05-01T06:49:07.792Z,99.90
2023-05-01T06:51:34.559Z,99.90
2023-05-01T06:54:02.022Z,99.90
2023-05-01T06:56:28.803Z,99.90
2023-05-01T06:58:55.531Z,99.90
2023-05-01T07:01:22.432Z,99.90
2023-05-01T07:03:49.333Z,99.90
2023-05-01T07:06:16.114Z,99.90
2023-05-01T07:08:42.849Z,99.90
2023-05-01T07:11:09.632Z,99.90
2023-05-01T07:13:36.518Z,99.90
2023-05-01T07:16:03.312Z,99.90
2023-05-01T07:18:30.091Z,99.90
2023-05-01T07:20:56.745Z,99.90
2023-05-01T07:23:25.361Z,99.90
2023-05-01T07:25:53.101Z,99.90
2023-05-01T07:28:21.798Z,99.90
2023-05-01T07:30:48.618Z,99.90
2023-05-01T07:33:18.241Z,99.90
2023-05-01T07:35:45.029Z,99.90
2023-05-01T07:38:12.068Z,99.90
2023-05-01T07:40:38.800Z,99.90
2023-05-01T07:43:05.586Z,99.90
2023-05-01T07:45:32.771Z,99.90
2023-05-01T07:47:59.625Z,99.90
2023-05-01T07:50:26.861Z,99.90
2023-05-01T07:52:53.791Z,99.90
2023-05-01T07:55:25.028Z,99.90
2023-05-01T07:57:51.949Z,99.90
2023-05-01T08:00:18.865Z,99.90
2023-05-01T08:02:47.921Z,99.90
2023-05-01T08:05:14.911Z,99.90
2023-05-01T08:07:41.545Z,99.90
2023-05-01T08:10:08.745Z,99.90
2023-05-01T08:12:36.428Z,99.90
2023-05-01T08:15:07.892Z,99.90
2023-05-01T08:17:39.553Z,99.90
2023-05-01T08:20:07.112Z,99.90
2023-05-01T08:22:33.776Z,99.90
2023-05-01T08:25:00.427Z,99.90
2023-05-01T08:27:27.516Z,99.90
2023-05-01T08:29:54.397Z,99.90
2023-05-01T08:32:21.660Z,99.90
2023-05-01T08:34:48.364Z,99.90
2023-05-01T08:37:15.006Z,99.90
2023-05-01T08:39:41.702Z,99.90
2023-05-01T08:42:08.512Z,99.90
2023-05-01T08:44:41.865Z,99.90
2023-05-01T08:47:15.976Z,99.90
2023-05-01T08:49:43.929Z,99.90
2023-05-01T08:52:12.795Z,99.90
2023-05-01T08:54:44.569Z,99.90
2023-05-01T08:57:15.026Z,99.90
2023-05-01T08:59:41.723Z,99.90
2023-05-01T09:02:16.838Z,99.90
2023-05-01T09:04:44.076Z,99.90
2023-05-01T09:07:11.481Z,99.90
2023-05-01T09:09:38.244Z,99.90
2023-05-01T09:12:23.567Z,99.90
2023-05-01T09:14:52.337Z,99.90
2023-05-01T09:17:20.235Z,99.90
2023-05-01T09:19:47.658Z,99.90
2023-05-01T09:22:15.288Z,99.90
2023-05-01T09:24:47.051Z,99.90
2023-05-01T09:27:14.710Z,99.90
2023-05-01T09:29:43.000Z,99.90
2023-05-01T09:32:29.774Z,99.90
2023-05-01T09:35:13.918Z,99.90
2023-05-01T09:37:41.020Z,99.90
2023-05-01T09:40:15.698Z,99.90
2023-05-01T09:42:56.091Z,99.90
2023-05-01T09:45:23.987Z,99.90
2023-05-01T09:47:51.479Z,99.90
2023-05-01T09:50:34.727Z,99.90
2023-05-01T09:53:02.676Z,99.90
2023-05-01T09:55:29.354Z,99.90
2023-05-01T09:57:56.186Z,99.90
2023-05-01T10:00:22.827Z,99.90
2023-05-01T10:02:50.978Z,99.90
2023-05-01T10:05:20.743Z,98.30
2023-05-01T10:07:58.918Z,95.80
2023-05-01T10:10:26.045Z,94.50
2023-05-01T10:12:52.734Z,95.00
2023-05-01T10:15:25.401Z,95.30
2023-05-01T10:17:54.405Z,94.00
2023-05-01T10:20:21.669Z,88.70
2023-05-01T10:22:49.029Z,91.80
2023-05-01T10:25:17.543Z,92.90
2023-05-01T10:27:50.099Z,91.30
2023-05-01T10:30:22.359Z,91.10
2023-05-01T10:32:49.735Z,90.40
2023-05-01T10:35:23.888Z,90.30
2023-05-01T10:38:06.461Z,89.70
2023-05-01T10:40:46.227Z,89.50
2023-05-01T10:43:29.812Z,85.70
2023-05-01T10:46:19.131Z,89.00
2023-05-01T10:48:46.127Z,86.60
2023-05-01T10:51:17.942Z,88.10
2023-05-01T10:53:46.330Z,81.90
2023-05-01T10:56:26.002Z,84.00
2023-05-01T10:58:52.796Z,81.10
2023-05-01T11:01:28.509Z,80.20
2023-05-01T11:03:56.586Z,79.90
2023-05-01T11:06:24.033Z,80.80
2023-05-01T11:08:51.252Z,79.00
2023-05-01T11:11:23.693Z,77.50
2023-05-01T11:14:03.995Z,77.20
2023-05-01T11:16:39.770Z,78.60
2023-05-01T11:19:08.662Z,75.90
2023-05-01T11:21:41.706Z,73.20
2023-05-01T11:24:09.762Z,77.50
2023-05-01T11:26:39.791Z,77.60
2023-05-01T11:29:08.912Z,78.90
2023-05-01T11:31:37.326Z,78.80
2023-05-01T11:34:06.799Z,75.80
2023-05-01T11:36:50.541Z,71.10
2023-05-01T11:39:18.341Z,69.90
2023-05-01T11:41:45.854Z,66.70
2023-05-01T11:44:15.546Z,68.90
2023-05-01T11:46:42.513Z,72.50
2023-05-01T11:49:09.556Z,71.10
2023-05-01T11:51:36.257Z,68.90
2023-05-01T11:54:04.223Z,69.10
2023-05-01T11:56:32.139Z,65.60
2023-05-01T11:59:00.691Z,65.60
2023-05-01T12:01:38.915Z,63.30
2023-05-01T12:04:08.112Z,60.30
2023-05-01T12:06:44.811Z,59.20
2023-05-01T12:09:28.848Z,58.50
2023-05-01T12:11:57.840Z,58.60
2023-05-01T12:14:24.737Z,56.50
2023-05-01T12:16:52.206Z,56.50
2023-05-01T12:19:20.510Z,58.60
2023-05-01T12:21:48.342Z,56.40
2023-05-01T12:24:18.933Z,57.30
2023-05-01T12:26:46.418Z,57.90
2023-05-01T12:29:13.216Z,59.30
2023-05-01T12:31:48.297Z,61.00
2023-05-01T12:34:15.020Z,62.60
2023-05-01T12:36:41.818Z,64.10
2023-05-01T12:39:10.491Z,65.10
2023-05-01T12:41:41.884Z,65.50
2023-05-01T12:44:20.610Z,66.90
2023-05-01T12:46:54.801Z,68.30
2023-05-01T12:49:22.935Z,69.70
2023-05-01T12:51:51.587Z,71.40
2023-05-01T12:54:23.051Z,71.20
2023-05-01T12:56:53.050Z,73.80
2023-05-01T12:59:27.472Z,73.60
2023-05-01T13:02:00.951Z,75.60
2023-05-01T13:04:28.271Z,77.80
2023-05-01T13:06:56.713Z,80.40
2023-05-01T13:09:28.469Z,82.90
2023-05-01T13:12:05.842Z,87.00
2023-05-01T13:14:42.541Z,87.20
2023-05-01T13:17:11.617Z,91.00
2023-05-01T13:19:39.087Z,91.50
2023-05-01T13:22:06.294Z,92.40
2023-05-01T13:24:40.856Z,97.00
2023-05-01T13:27:12.534Z,98.90
2023-05-01T13:29:41.798Z,99.90
2023-05-01T13:32:11.329Z,99.90
2023-05-01T13:34:42.214Z,99.90
2023-05-01T13:37:14.321Z,99.90
2023-05-01T13:39:44.999Z,99.90
2023-05-01T13:42:12.868Z,99.90
2023-05-01T13:44:50.940Z,99.90
2023-05-01T13:47:18.657Z,99.90
2023-05-01T13:49:45.939Z,99.90
2023-05-01T13:52:17.036Z,99.90
2023-05-01T13:54:43.898Z,99.90
2023-05-01T13:57:10.730Z,99.90
2023-05-01T13:59:40.535Z,99.90
2023-05-01T14:02:21.753Z,99.90
2023-05-01T14:04:49.166Z,99.90
2023-05-01T14:07:23.449Z,99.90
2023-05-01T14:09:55.910Z,99.90
2023-05-01T14:12:30.386Z,99.90
2023-05-01T14:14:58.086Z,99.90
2023-05-01T14:17:32.705Z,99.90
2023-05-01T14:19:59.552Z,97.00
2023-05-01T14:22:30.278Z,97.40
2023-05-01T14:24:58.652Z,96.30
2023-05-01T14:27:25.841Z,93.40
2023-05-01T14:29:54.372Z,91.60
2023-05-01T14:32:21.427Z,80.10
2023-05-01T14:34:48.164Z,79.40
2023-05-01T14:37:15.214Z,71.70
2023-05-01T14:39:41.922Z,62.20
2023-05-01T14:42:08.643Z,65.80
2023-05-01T14:44:39.994Z,65.30
2023-05-01T14:47:09.527Z,59.70
2023-05-01T14:49:38.040Z,56.00
2023-05-01T14:52:05.000Z,59.70
2023-05-01T14:54:35.978Z,58.20
2023-05-01T14:57:06.208Z,55.30
2023-05-01T14:59:32.849Z,56.50
2023-05-01T15:01:59.595Z,54.30
2023-05-01T15:04:26.391Z,54.90
2023-05-01T15:06:53.923Z,55.40
2023-05-01T15:09:20.626Z,54.00
2023-05-01T15:11:48.352Z,54.60
2023-05-01T15:14:15.011Z,54.60
2023-05-01T15:16:41.858Z,52.30
2023-05-01T15:19:08.674Z,52.80
2023-05-01T15:21:35.341Z,53.90
2023-05-01T15:24:01.985Z,51.90
2023-05-01T15:26:28.636Z,52.40
2023-05-01T15:28:55.378Z,52.80
2023-05-01T15:31:22.641Z,54.00
2023-05-01T15:33:49.346Z,55.90
2023-05-01T15:36:16.653Z,57.70
2023-05-01T15:38:43.306Z,58.70
2023-05-01T15:41:09.998Z,60.80
2023-05-01T15:43:36.993Z,62.50
2023-05-01T15:46:06.031Z,63.30
2023-05-01T15:48:33.641Z,64.60
2023-05-01T15:51:00.281Z,65.20
2023-05-01T15:53:26.910Z,66.80
2023-05-01T15:55:57.599Z,68.20
2023-05-01T15:58:24.730Z,70.00
2023-05-01T16:00:51.785Z,70.00
2023-05-01T16:03:18.771Z,70.60
2023-05-01T16:05:47.067Z,71.80
2023-05-01T16:08:14.203Z,72.40
2023-05-01T16:10:41.010Z,72.40
2023-05-01T16:13:11.210Z,71.70
2023-05-01T16:15:38.255Z,68.90
2023-05-01T16:18:06.024Z,70.80
2023-05-01T16:20:42.448Z,71.60
2023-05-01T16:23:09.152Z,73.40
2023-05-01T16:25:35.811Z,72.00
2023-05-01T16:28:05.967Z,72.10
2023-05-01T16:30:32.764Z,69.50
2023-05-01T16:33:03.016Z,71.30
2023-05-01T16:35:29.743Z,68.20
2023-05-01T16:37:56.506Z,68.80
2023-05-01T16:40:23.227Z,67.80
2023-05-01T16:42:51.707Z,68.30
2023-05-01T16:45:18.884Z,69.60
2023-05-01T16:47:45.928Z,70.30
2023-05-01T16:50:13.207Z,72.20
2023-05-01T16:52:39.930Z,73.90
2023-05-01T16:55:07.040Z,76.30
2023-05-01T16:57:33.783Z,79.10
2023-05-01T17:00:01.448Z,81.60
2023-05-01T17:02:28.423Z,83.10
2023-05-01T17:04:55.156Z,84.30
2023-05-01T17:07:23.866Z,86.00
2023-05-01T17:09:51.795Z,87.40
2023-05-01T17:12:18.505Z,89.20
2023-05-01T17:14:45.563Z,89.40
2023-05-01T17:17:12.267Z,90.60
2023-05-01T17:19:39.047Z,90.60
2023-05-01T17:22:09.286Z,91.50
2023-05-01T17:24:36.552Z,91.80
2023-05-01T17:27:03.572Z,92.20
2023-05-01T17:29:31.898Z,92.40
2023-05-01T17:31:58.631Z,93.20
2023-05-01T17:34:25.414Z,93.80
2023-05-01T17:36:52.322Z,94.30
2023-05-01T17:39:21.557Z,94.20
2023-05-01T17:41:51.296Z,94.70
2023-05-01T17:44:17.948Z,95.20
2023-05-01T17:46:44.830Z,95.50
2023-05-01T17:49:11.573Z,96.00
2023-05-01T17:51:38.270Z,96.30
2023-05-01T17:54:23.141Z,96.50
2023-05-01T17:56:49.954Z,96.80
2023-05-01T17:59:17.304Z,97.20
2023-05-01T18:01:44.027Z,97.80
2023-05-01T18:04:11.103Z,98.60
2023-05-01T18:06:37.890Z,98.80
2023-05-01T18:09:04.615Z,99.00
2023-05-01T18:11:31.365Z,99.20
2023-05-01T18:13:58.022Z,99.30
2023-05-01T18:16:24.813Z,98.70
2023-05-01T18:18:52.915Z,99.00
2023-05-01T18:21:19.587Z,98.00
2023-05-01T18:23:48.439Z,97.80
2023-05-01T18:26:16.568Z,97.70
2023-05-01T18:28:43.271Z,98.20
2023-05-01T18:31:09.910Z,98.50
2023-05-01T18:33:36.620Z,98.80
2023-05-01T18:36:04.145Z,99.40
2023-05-01T18:38:30.818Z,99.40
2023-05-01T18:40:57.421Z,99.90
2023-05-01T18:43:24.076Z,99.90
2023-05-01T18:45:50.862Z,99.90
2023-05-01T18:48:17.644Z,99.90
2023-05-01T18:50:49.303Z,99.90
2023-05-01T18:53:24.521Z,99.90
2023-05-01T18:55:51.197Z,99.90
2023-05-01T18:58:17.888Z,99.90
2023-05-01T19:00:44.522Z,99.90
2023-05-01T19:03:15.523Z,99.90
2023-05-01T19:05:42.382Z,99.90
2023-05-01T19:08:09.547Z,99.90
2023-05-01T19:10:37.409Z,99.90
2023-05-01T19:13:07.352Z,99.90
2023-05-01T19:15:36.386Z,99.90
2023-05-01T19:18:04.343Z,99.90
2023-05-01T19:20:31.207Z,99.90
2023-05-01T19:22:57.953Z,99.90
2023-05-01T19:25:24.973Z,99.90
2023-05-01T19:27:51.706Z,99.90
2023-05-01T19:30:18.365Z,99.90
2023-05-01T19:32:45.944Z,99.90
2023-05-01T19:35:12.669Z,99.90
2023-05-01T19:37:39.865Z,99.90
2023-05-01T19:40:07.260Z,99.90
2023-05-01T19:42:33.953Z,99.90
2023-05-01T19:45:00.658Z,99.90
2023-05-01T19:47:27.419Z,99.90
2023-05-01T19:49:54.206Z,99.90
2023-05-01T19:52:21.155Z,99.90
2023-05-01T19:54:47.813Z,99.90
2023-05-01T19:57:14.509Z,99.90
2023-05-01T19:59:42.656Z,99.90
2023-05-01T20:02:09.407Z,99.90
2023-05-01T20:04:36.259Z,99.90
2023-05-01T20:07:04.494Z,99.90
2023-05-01T20:09:31.529Z,99.90
2023-05-01T20:11:58.189Z,99.90
2023-05-01T20:14:24.850Z,99.90
2023-05-01T20:16:52.882Z,99.90
2023-05-01T20:19:19.884Z,99.90
2023-05-01T20:21:46.723Z,99.90
2023-05-01T20:24:13.863Z,99.90
2023-05-01T20:26:40.581Z,99.90
2023-05-01T20:29:07.476Z,99.90
2023-05-01T20:31:34.473Z,99.90
2023-05-01T20:34:01.334Z,99.90
2023-05-01T20:36:28.402Z,99.90
2023-05-01T20:38:57.678Z,99.90
2023-05-01T20:41:25.421Z,99.90
2023-05-01T20:43:52.412Z,99.90
2023-05-01T20:46:19.809Z,99.90
2023-05-01T20:48:47.361Z,99.90
2023-05-01T20:51:15.547Z,99.90
2023-05-01T20:53:42.261Z,99.90
2023-05-01T20:56:09.041Z,99.90
2023-05-01T20:58:36.124Z,99.90
2023-05-01T21:01:02.913Z,99.90
2023-05-01T21:03:29.761Z,99.90
2023-05-01T21:06:00.777Z,99.90
2023-05-01T21:08:28.211Z,99.90
2023-05-01T21:10:55.311Z,99.90
2023-05-01T21:13:24.570Z,99.90
2023-05-01T21:15:52.517Z,99.90
2023-05-01T21:18:20.434Z,99.90
2023-05-01T21:20:47.488Z,99.90
2023-05-01T21:23:17.935Z,99.90
2023-05-01T21:25:44.723Z,99.90
2023-05-01T21:28:14.680Z,99.90
2023-05-01T21:30:41.662Z,99.90
2023-05-01T21:33:12.928Z,99.90
2023-05-01T21:35:41.917Z,99.90
2023-05-01T21:38:09.361Z,99.90
2023-05-01T21:40:41.815Z,99.90
2023-05-01T21:43:08.819Z,99.90
2023-05-01T21:45:40.135Z,99.90
2023-05-01T21:48:13.690Z,99.90
2023-05-01T21:50:40.474Z,99.90
2023-05-01T21:53:07.214Z,99.90
2023-05-01T21:55:34.130Z,99.90
2023-05-01T21:58:01.824Z,99.90
2023-05-01T22:00:29.770Z,99.90
2023-05-01T22:02:56.842Z,99.90
2023-05-01T22:05:23.706Z,99.90
2023-05-01T22:07:54.285Z,99.90
2023-05-01T22:10:21.109Z,99.90
2023-05-01T22:12:51.444Z,99.90
2023-05-01T22:15:18.238Z,99.90
2023-05-01T22:17:45.497Z,99.90
2023-05-01T22:20:12.421Z,99.90
2023-05-01T22:22:40.768Z,99.90
2023-05-01T22:25:08.458Z,99.90
2023-05-01T22:27:36.113Z,99.90
2023-05-01T22:30:04.069Z,99.90
2023-05-01T22:32:31.178Z,99.90
2023-05-01T22:34:57.988Z,99.90
2023-05-01T22:37:25.636Z,99.90
2023-05-01T22:39:53.249Z,99.90
2023-05-01T22:42:20.062Z,99.90
2023-05-01T22:44:46.867Z,99.90
2023-05-01T22:47:13.563Z,99.90
2023-05-01T22:49:40.224Z,99.90
2023-05-01T22:52:06.975Z,99.90
2023-05-01T22:54:33.653Z,99.90
2023-05-01T22:57:00.294Z,99.90
2023-05-01T22:59:26.986Z,99.90
2023-05-01T23:01:54.352Z,99.90
2023-05-01T23:04:21.425Z,99.90
2023-05-01T23:06:48.196Z,99.90
2023-05-01T23:09:15.077Z,99.90
2023-05-01T23:11:41.916Z,99.90
2023-05-01T23:14:08.620Z,99.90
2023-05-01T23:16:41.529Z,99.90
2023-05-01T23:19:24.941Z,99.90
2023-05-01T23:22:05.261Z,99.90
2023-05-01T23:24:44.922Z,99.90
2023-05-01T23:27:13.506Z,99.90
2023-05-01T23:29:41.344Z,99.90
2023-05-01T23:32:15.183Z,99.90
2023-05-01T23:34:43.224Z,99.90
2023-05-01T23:37:09.922Z,99.90
2023-05-01T23:39:36.552Z,99.90
2023-05-01T23:42:03.258Z,99.90
2023-05-01T23:44:30.414Z,99.90
2023-05-01T23:46:57.334Z,99.90
2023-05-01T23:49:24.097Z,99.90
2023-05-01T23:51:50.769Z,99.90
2023-05-01T23:54:17.427Z,99.90
2023-05-01T23:56:44.045Z,99.90
2023-05-01T23:59:11.778Z,99.90
